AirNav   Phillips 66 Aviation Fuel
 
 871 users online  

FA74 Romor Ranch Airport
Ochopee, Florida, USA

GOING TO OCHOPEE?


FAA INFORMATION EFFECTIVE 21 JUNE 2018

Location

FAA Identifier: FA74
Lat/Long: 25-58-51.3380N / 081-03-24.2520W
25-58.855633N / 081-03.404200W
25.9809272 / -81.0567367
(estimated)
Elevation: 12 ft. / 4 m (estimated)
Variation: 02W (1985)
From city: 15 miles NE of OCHOPEE, FL
Time zone: UTC -4 (UTC -5 during Standard Time)
Zip code: 34141

Airport Operations

Airport use: Private use. Permission required prior to landing
Activation date: 01/1992
Control tower: no
ARTCC: MIAMI CENTER
FSS: MIAMI FLIGHT SERVICE STATION
Attendance: UNATNDD
Wind indicator: no
Segmented circle: no

Airport Communications

WX AWOS-3 at TNT (11 nm SE): 119.075 ((239) 695-9198)

Nearby radio navigation aids

VOR radial/distance  VOR name  Freq  Var
DHPr290/39.7DOLPHIN VORTAC113.9004W

 
NDB name  Hdg/Dist  Freq  Var  ID
MONRY346/7.622705WTN - -.

Airport Services

Runway Information

Runway 12/30

Dimensions: 1860 x 75 ft. / 567 x 23 m
Surface: turf
RUNWAY 12  RUNWAY 30
Traffic pattern: leftleft
Obstructions: 50 ft. trees
PINE TREES ALL DIRECTIONS EXCEPT APCH ENDS RWY 12-30.
none

Airport Ownership and Management from official FAA records

Ownership: Privately-owned
Owner: SUE NULMAN
98610 OVERSEAS HWY
KEY LARGO, FL 33037
Phone 786-258-2227
Manager: SUE NULMAN
98610 OVERSEAS HWY
KEY LARGO, FL 33037
Phone 786-258-2227

Airport Operational Statistics

Aircraft based on the field: 1
Single engine airplanes: 1
    

Instrument Procedures

There are no published instrument procedures at FA74.

Some nearby airports with instrument procedures:

KTNT - Dade-Collier Training and Transition Airport (11 nm SE)
KIMM - Immokalee Regional Airport (33 nm NW)
KMKY - Marco Island Airport (33 nm W)
KTMB - Miami Executive Airport (39 nm SE)
X51 - Miami Homestead General Aviation Airport (40 nm SE)
 
Loc | Ops | Rwys | IFR | FBO | Links
Com | Nav | Svcs | Stats | Notes

Reliance Aviation
AirBoss

 
Area around FA74 (Romor Ranch Airport)
 
Road maps at: MapQuest Bing Google
 
Aerial photo
No photo
 
Sectional chart

 
Airport distance calculator
Flying to Romor Ranch Airport? Find the distance to fly.

From to FA74

Sunrise and sunset
Times for 23-Jun-2018
 Local
(UTC-4)
 Zulu
(UTC)
Morning civil twilight06:0810:08
Sunrise06:3410:34
Sunset20:1800:18
Evening civil twilight20:4400:44

Current date and time
Zulu (UTC)  23-Jun-2018 23:58:30
Local (UTC-4)  23-Jun-2018 19:58:30
 
METAR
KIMM 
33nm NW 
232340Z AUTO 00000KT 10SM CLR 27/25 A3002 RMK AO2
KMKY 
33nm W 
232256Z AUTO 00000KT 10SM CLR 28/25 A3002 RMK AO2 SLP165 T02780250
KTMB 
39nm SE 
232353Z 00000KT 10SM CLR 27/22 A3001 RMK AO2 SLP161 T02670222 10333 20256 50007
KAPF 
39nm W 
232353Z 00000KT 10SM CLR 28/27 A3000 RMK AO2 SLP159 60002 T02830272 10311 20267 51005 $
KMIA 
42nm E 
232353Z 00000KT 10SM FEW030 FEW150 BKN250 26/24 A3001 RMK AO2 SLP163 CB DSNT E 60015 T02610244 10328 20233 50010 $
KOPF 
42nm E 
232353Z 00000KT 10SM CLR 26/24 A3001 RMK AO2 SLP164 60003 T02610239 10317 20244 50003
KHWO 
44nm E 
232353Z 00000KT 10SM CLR 27/24 A3002 RMK AO2 SLP166 60101 T02720244 10333 20239 55005
KHST 
48nm SE 
232334Z AUTO 00000KT 10SM CLR 24/23 A3000 RMK AO2 RAE16DZB16E17DZB29E31RAB31 SLPNO $
KFXE 
49nm E 
232353Z 32004KT 10SM CLR 29/22 A3001 RMK AO2 TSE2254 SLP164 T02940217 10328 20272 53000
KFLL 
49nm E 
232353Z 24005KT 10SM FEW028 SCT070 BKN120 BKN250 27/25 A3000 RMK AO2 SLP159 60074 T02720250 10317 20239 56002
TAF
KTMB 
39nm SE 
231743Z 2318/2418 VRB05KT P6SM VCTS SCT025CB BKN050 FM240000 VRB05KT P6SM VCSH FEW030 SCT070 BKN120 FM240200 VRB03KT P6SM FEW030 SCT100 FM241400 12008KT P6SM FEW025 SCT050
KAPF 
39nm W 
231743Z 2318/2418 28007KT P6SM VCTS SCT035CB SCT050 FM240200 VRB03KT P6SM FEW030 SCT100 FM241400 06006KT P6SM VCTS SCT030CB
KMIA 
42nm E 
232034Z 2321/2424 VRB05KT P6SM VCTS SCT025CB BKN050 TEMPO 2321/2322 VRB15G25KT 2SM TSRA FM240000 VRB05KT P6SM VCSH FEW030 SCT070 BKN120 FM240200 VRB03KT P6SM FEW030 SCT100 FM241400 12008KT P6SM FEW025 SCT050
KOPF 
42nm E 
232033Z 2321/2418 VRB05KT P6SM VCTS SCT025CB BKN050 TEMPO 2321/2322 VRB15G20KT 2SM TSRA FM240000 VRB05KT P6SM VCSH FEW030 SCT070 BKN120 FM240200 VRB03KT P6SM FEW030 SCT100 FM241400 12008KT P6SM FEW025 SCT050
KHST 
48nm SE 
231600Z 2316/2422 29009KT 9999 VCTS SCT030CB SCT150 QNH3000INS TEMPO 2316/2323 29010G15KT 4800 -TSRA BKN030CB BECMG 2323/2324 31006KT 9999 NSW SCT050 QNH3002INS BECMG 2405/2406 05006KT 9999 SCT020 SCT140 QNH3003INS BECMG 2417/2418 09009KT 9999 VCTS SCT050CB BKN060 QNH3004INS TEMPO 2420/2422 09010G15KT 4800 -TSRA BKN030CB TX33/2317Z TN23/2411Z
NOTAMs
Click for the latest NOTAMs
NOTAMs are issued by the DoD/FAA and will open in a separate window not controlled by AirNav.

 

 
 

Would you like to see your business listed on this page?

 If your business provides an interesting product or service to pilots, flight crews, aircraft, or users of the Romor Ranch Airport, you should consider listing it here.  To start the listing process, click on the button below
 
Add a business
 

Other Pages about Romor Ranch Airport

Update a link
 
Copyright © AirNav, LLC. All rights reserved. Privacy Policy  Contact